sensor_id;sensor_type;location;lat;lon;timestamp;temperature;humidity
14709;DHT22;7445;50.774;4.944;2023-06-19T06:12:10;20.50;99.90
14709;DHT22;7445;50.774;4.944;2023-06-19T06:14:37;20.70;99.90
14709;DHT22;7445;50.774;4.944;2023-06-19T06:17:02;20.70;99.90
14709;DHT22;7445;50.774;4.944;2023-06-19T06:19:30;20.80;99.90
14709;DHT22;7445;50.774;4.944;2023-06-19T06:21:56;20.80;99.90
14709;DHT22;7445;50.774;4.944;2023-06-19T06:24:21;20.80;99.90
14709;DHT22;7445;50.774;4.944;2023-06-19T06:26:47;20.90;99.90
14709;DHT22;7445;50.774;4.944;2023-06-19T06:29:13;21.00;99.90
14709;DHT22;7445;50.774;4.944;2023-06-19T06:31:38;21.10;99.90
14709;DHT22;7445;50.774;4.944;2023-06-19T06:34:07;21.10;99.90
14709;DHT22;7445;50.774;4.944;2023-06-19T06:36:32;21.20;99.90
14709;DHT22;7445;50.774;4.944;2023-06-19T06:38:58;21.20;99.90
14709;DHT22;7445;50.774;4.944;2023-06-19T06:41:23;21.30;99.90
14709;DHT22;7445;50.774;4.944;2023-06-19T06:43:49;21.40;99.90
14709;DHT22;7445;50.774;4.944;2023-06-19T06:46:15;21.40;99.90
14709;DHT22;7445;50.774;4.944;2023-06-19T06:48:49;21.40;99.90
14709;DHT22;7445;50.774;4.944;2023-06-19T06:51:15;21.40;99.90
14709;DHT22;7445;50.774;4.944;2023-06-19T06:53:41;21.40;99.90
14709;DHT22;7445;50.774;4.944;2023-06-19T06:56:21;21.40;99.90
14709;DHT22;7445;50.774;4.944;2023-06-19T06:58:47;21.50;99.90
14709;DHT22;7445;50.774;4.944;2023-06-19T07:01:12;21.60;99.90
14709;DHT22;7445;50.774;4.944;2023-06-19T07:03:38;21.70;99.90
14709;DHT22;7445;50.774;4.944;2023-06-19T07:06:05;21.70;99.90
14709;DHT22;7445;50.774;4.944;2023-06-19T07:08:30;21.80;99.90
14709;DHT22;7445;50.774;4.944;2023-06-19T07:10:57;21.90;99.90
14709;DHT22;7445;50.774;4.944;2023-06-19T07:13:23;22.00;99.90
14709;DHT22;7445;50.774;4.944;2023-06-19T07:15:49;22.10;99.90
14709;DHT22;7445;50.774;4.944;2023-06-19T07:18:14;22.10;99.90
14709;DHT22;7445;50.774;4.944;2023-06-19T07:20:40;22.10;99.90
14709;DHT22;7445;50.774;4.944;2023-06-19T07:23:05;22.20;99.90
14709;DHT22;7445;50.774;4.944;2023-06-19T07:25:31;22.30;99.90
14709;DHT22;7445;50.774;4.944;2023-06-19T07:27:59;22.40;99.90
14709;DHT22;7445;50.774;4.944;2023-06-19T07:30:26;22.30;99.90
14709;DHT22;7445;50.774;4.944;2023-06-19T07:32:52;22.40;99.90
14709;DHT22;7445;50.774;4.944;2023-06-19T07:35:18;22.50;99.90
14709;DHT22;7445;50.774;4.944;2023-06-19T07:37:44;22.70;99.90
14709;DHT22;7445;50.774;4.944;2023-06-19T07:40:11;22.80;99.90
14709;DHT22;7445;50.774;4.944;2023-06-19T07:42:37;22.80;99.90
14709;DHT22;7445;50.774;4.944;2023-06-19T07:45:03;22.80;96.10
14709;DHT22;7445;50.774;4.944;2023-06-19T07:47:29;22.70;98.70
14709;DHT22;7445;50.774;4.944;2023-06-19T07:49:55;22.70;99.60
14709;DHT22;7445;50.774;4.944;2023-06-19T07:52:20;22.70;99.90
14709;DHT22;7445;50.774;4.944;2023-06-19T07:54:57;22.70;99.90
14709;DHT22;7445;50.774;4.944;2023-06-19T07:57:23;23.00;99.90
14709;DHT22;7445;50.774;4.944;2023-06-19T07:59:50;23.40;97.20
14709;DHT22;7445;50.774;4.944;2023-06-19T08:02:16;23.90;89.60
14709;DHT22;7445;50.774;4.944;2023-06-19T08:04:42;24.10;87.70
14709;DHT22;7445;50.774;4.944;2023-06-19T08:07:08;24.10;87.00
14709;DHT22;7445;50.774;4.944;2023-06-19T08:09:33;24.00;89.80
14709;DHT22;7445;50.774;4.944;2023-06-19T08:11:59;24.00;90.00
14709;DHT22;7445;50.774;4.944;2023-06-19T08:14:25;24.30;85.50
14709;DHT22;7445;50.774;4.944;2023-06-19T08:16:50;24.10;91.00
14709;DHT22;7445;50.774;4.944;2023-06-19T08:19:16;24.00;90.70
14709;DHT22;7445;50.774;4.944;2023-06-19T08:21:41;23.90;98.50
14709;DHT22;7445;50.774;4.944;2023-06-19T08:24:07;23.90;84.60
14709;DHT22;7445;50.774;4.944;2023-06-19T08:26:32;24.10;90.80
14709;DHT22;7445;50.774;4.944;2023-06-19T08:28:58;24.40;91.20
14709;DHT22;7445;50.774;4.944;2023-06-19T08:31:24;24.30;79.20
14709;DHT22;7445;50.774;4.944;2023-06-19T08:33:55;24.10;77.30
14709;DHT22;7445;50.774;4.944;2023-06-19T08:36:22;24.00;84.50
14709;DHT22;7445;50.774;4.944;2023-06-19T08:38:49;23.80;82.10
14709;DHT22;7445;50.774;4.944;2023-06-19T08:41:19;23.70;83.40
14709;DHT22;7445;50.774;4.944;2023-06-19T08:43:46;23.60;90.10
14709;DHT22;7445;50.774;4.944;2023-06-19T08:46:15;23.80;81.50
14709;DHT22;7445;50.774;4.944;2023-06-19T08:48:41;23.70;78.40
14709;DHT22;7445;50.774;4.944;2023-06-19T08:51:10;23.70;79.60
14709;DHT22;7445;50.774;4.944;2023-06-19T08:53:51;23.70;79.90
14709;DHT22;7445;50.774;4.944;2023-06-19T08:57:04;23.80;63.40
14709;DHT22;7445;50.774;4.944;2023-06-19T08:59:54;24.10;60.90
14709;DHT22;7445;50.774;4.944;2023-06-19T09:02:36;24.60;64.50
14709;DHT22;7445;50.774;4.944;2023-06-19T09:05:21;25.10;53.80
14709;DHT22;7445;50.774;4.944;2023-06-19T09:08:16;25.30;59.10
14709;DHT22;7445;50.774;4.944;2023-06-19T09:11:02;25.40;55.20
14709;DHT22;7445;50.774;4.944;2023-06-19T09:14:01;25.50;47.00
14709;DHT22;7445;50.774;4.944;2023-06-19T09:16:53;25.40;48.90
14709;DHT22;7445;50.774;4.944;2023-06-19T09:19:28;25.50;40.00
14709;DHT22;7445;50.774;4.944;2023-06-19T09:22:36;25.60;41.60
14709;DHT22;7445;50.774;4.944;2023-06-19T09:25:25;25.60;50.50
14709;DHT22;7445;50.774;4.944;2023-06-19T09:28:01;25.80;35.00
14709;DHT22;7445;50.774;4.944;2023-06-19T09:30:52;25.80;43.50
14709;DHT22;7445;50.774;4.944;2023-06-19T09:33:52;25.90;38.50
14709;DHT22;7445;50.774;4.944;2023-06-19T09:36:26;26.40;27.30
14709;DHT22;7445;50.774;4.944;2023-06-19T09:39:04;26.30;25.70
14709;DHT22;7445;50.774;4.944;2023-06-19T09:41:47;26.50;27.50
14709;DHT22;7445;50.774;4.944;2023-06-19T09:44:20;26.60;21.30
14709;DHT22;7445;50.774;4.944;2023-06-19T09:46:54;26.80;24.90
14709;DHT22;7445;50.774;4.944;2023-06-19T09:52:56;26.70;19.00
14709;DHT22;7445;50.774;4.944;2023-06-19T09:55:54;26.40;20.50
14709;DHT22;7445;50.774;4.944;2023-06-19T10:01:37;26.30;22.00
14709;DHT22;7445;50.774;4.944;2023-06-19T10:04:21;26.20;19.00
14709;DHT22;7445;50.774;4.944;2023-06-19T10:06:49;26.30;24.00
14709;DHT22;7445;50.774;4.944;2023-06-19T10:09:32;26.50;24.50
14709;DHT22;7445;50.774;4.944;2023-06-19T10:12:21;27.10;17.20
14709;DHT22;7445;50.774;4.944;2023-06-19T10:15:02;27.70;12.60
14709;DHT22;7445;50.774;4.944;2023-06-19T10:18:02;27.90;13.90
14709;DHT22;7445;50.774;4.944;2023-06-19T10:21:06;28.20;6.10
14709;DHT22;7445;50.774;4.944;2023-06-19T10:24:02;28.20;4.20
14709;DHT22;7445;50.774;4.944;2023-06-19T10:26:34;28.10;7.60
14709;DHT22;7445;50.774;4.944;2023-06-19T10:29:44;28.30;6.60
14709;DHT22;7445;50.774;4.944;2023-06-19T10:32:27;28.50;4.20
14709;DHT22;7445;50.774;4.944;2023-06-19T10:34:59;28.50;4.50
14709;DHT22;7445;50.774;4.944;2023-06-19T10:37:35;28.60;4.70
14709;DHT22;7445;50.774;4.944;2023-06-19T10:40:01;28.00;4.60
14709;DHT22;7445;50.774;4.944;2023-06-19T10:42:28;28.10;3.40
14709;DHT22;7445;50.774;4.944;2023-06-19T10:45:19;28.40;2.10
14709;DHT22;7445;50.774;4.944;2023-06-19T10:48:05;28.10;2.70
14709;DHT22;7445;50.774;4.944;2023-06-19T10:50:43;27.30;1.00
14709;DHT22;7445;50.774;4.944;2023-06-19T10:53:31;27.20;6.50
14709;DHT22;7445;50.774;4.944;2023-06-19T10:56:04;27.50;4.70
14709;DHT22;7445;50.774;4.944;2023-06-19T10:58:32;27.60;4.60
14709;DHT22;7445;50.774;4.944;2023-06-19T11:01:00;28.10;4.20
14709;DHT22;7445;50.774;4.944;2023-06-19T11:03:33;28.20;1.00
14709;DHT22;7445;50.774;4.944;2023-06-19T11:06:02;28.40;1.70
14709;DHT22;7445;50.774;4.944;2023-06-19T11:08:28;28.40;1.00
14709;DHT22;7445;50.774;4.944;2023-06-19T11:10:55;28.50;1.00
14709;DHT22;7445;50.774;4.944;2023-06-19T11:13:44;28.20;1.00
14709;DHT22;7445;50.774;4.944;2023-06-19T11:16:17;28.30;1.00
14709;DHT22;7445;50.774;4.944;2023-06-19T11:19:20;28.40;1.00
14709;DHT22;7445;50.774;4.944;2023-06-19T11:21:50;28.40;1.00
14709;DHT22;7445;50.774;4.944;2023-06-19T11:24:16;28.40;1.00
14709;DHT22;7445;50.774;4.944;2023-06-19T11:26:44;28.80;1.00
14709;DHT22;7445;50.774;4.944;2023-06-19T11:29:25;29.00;1.00
14709;DHT22;7445;50.774;4.944;2023-06-19T11:31:53;29.00;1.00
14709;DHT22;7445;50.774;4.944;2023-06-19T11:34:20;29.00;1.00
14709;DHT22;7445;50.774;4.944;2023-06-19T11:36:45;29.20;1.00
14709;DHT22;7445;50.774;4.944;2023-06-19T11:39:15;29.20;1.00
14709;DHT22;7445;50.774;4.944;2023-06-19T11:41:43;29.20;1.00
14709;DHT22;7445;50.774;4.944;2023-06-19T11:44:10;29.30;1.00
14709;DHT22;7445;50.774;4.944;2023-06-19T11:46:36;29.40;1.00
14709;DHT22;7445;50.774;4.944;2023-06-19T11:49:14;29.60;1.00
14709;DHT22;7445;50.774;4.944;2023-06-19T11:51:42;29.50;1.00
14709;DHT22;7445;50.774;4.944;2023-06-19T11:54:09;29.50;1.00
14709;DHT22;7445;50.774;4.944;2023-06-19T11:56:38;29.40;1.00
14709;DHT22;7445;50.774;4.944;2023-06-19T11:59:05;29.60;1.00
14709;DHT22;7445;50.774;4.944;2023-06-19T12:01:34;29.80;1.00
14709;DHT22;7445;50.774;4.944;2023-06-19T12:04:01;30.10;1.00
14709;DHT22;7445;50.774;4.944;2023-06-19T12:06:28;30.30;1.00
14709;DHT22;7445;50.774;4.944;2023-06-19T12:08:55;30.50;1.00
14709;DHT22;7445;50.774;4.944;2023-06-19T12:11:20;30.50;1.00
14709;DHT22;7445;50.774;4.944;2023-06-19T12:13:46;30.60;1.00
14709;DHT22;7445;50.774;4.944;2023-06-19T12:16:13;30.70;1.00
14709;DHT22;7445;50.774;4.944;2023-06-19T12:18:41;30.70;1.00
14709;DHT22;7445;50.774;4.944;2023-06-19T12:21:07;30.90;1.00
14709;DHT22;7445;50.774;4.944;2023-06-19T12:23:33;31.00;1.00
14709;DHT22;7445;50.774;4.944;2023-06-19T12:25:59;31.10;1.00
14709;DHT22;7445;50.774;4.944;2023-06-19T12:28:26;31.10;1.00
14709;DHT22;7445;50.774;4.944;2023-06-19T12:30:53;30.80;1.00
14709;DHT22;7445;50.774;4.944;2023-06-19T12:33:22;30.60;1.00
14709;DHT22;7445;50.774;4.944;2023-06-19T12:35:48;30.70;1.00
14709;DHT22;7445;50.774;4.944;2023-06-19T12:38:14;30.80;1.00
14709;DHT22;7445;50.774;4.944;2023-06-19T12:40:40;30.90;1.00
14709;DHT22;7445;50.774;4.944;2023-06-19T12:43:07;31.00;1.00
14709;DHT22;7445;50.774;4.944;2023-06-19T12:45:33;31.40;1.00
14709;DHT22;7445;50.774;4.944;2023-06-19T12:47:59;31.50;1.00
14709;DHT22;7445;50.774;4.944;2023-06-19T12:50:25;31.40;1.00
14709;DHT22;7445;50.774;4.944;2023-06-19T12:52:52;31.70;1.00
14709;DHT22;7445;50.774;4.944;2023-06-19T12:55:17;31.80;1.00
14709;DHT22;7445;50.774;4.944;2023-06-19T12:57:43;31.80;1.00
14709;DHT22;7445;50.774;4.944;2023-06-19T13:00:13;31.80;1.00
14709;DHT22;7445;50.774;4.944;2023-06-19T13:02:40;31.70;1.00
14709;DHT22;7445;50.774;4.944;2023-06-19T13:05:07;31.70;1.00
14709;DHT22;7445;50.774;4.944;2023-06-19T13:07:33;31.70;1.00
14709;DHT22;7445;50.774;4.944;2023-06-19T13:09:58;31.90;1.00
14709;DHT22;7445;50.774;4.944;2023-06-19T13:12:24;32.00;1.00
14709;DHT22;7445;50.774;4.944;2023-06-19T13:14:50;32.00;1.00
14709;DHT22;7445;50.774;4.944;2023-06-19T13:17:16;32.20;1.00
14709;DHT22;7445;50.774;4.944;2023-06-19T13:19:42;32.00;1.00
14709;DHT22;7445;50.774;4.944;2023-06-19T13:22:08;32.00;1.00
14709;DHT22;7445;50.774;4.944;2023-06-19T13:24:34;31.80;1.00
14709;DHT22;7445;50.774;4.944;2023-06-19T13:27:00;32.00;1.00
14709;DHT22;7445;50.774;4.944;2023-06-19T13:29:25;32.30;1.00
14709;DHT22;7445;50.774;4.944;2023-06-19T13:31:51;32.40;1.00
14709;DHT22;7445;50.774;4.944;2023-06-19T13:34:17;32.50;1.00
14709;DHT22;7445;50.774;4.944;2023-06-19T13:36:44;32.40;1.00
14709;DHT22;7445;50.774;4.944;2023-06-19T13:39:09;32.50;1.00
14709;DHT22;7445;50.774;4.944;2023-06-19T13:41:36;32.70;1.00
14709;DHT22;7445;50.774;4.944;2023-06-19T13:44:02;32.40;1.00
14709;DHT22;7445;50.774;4.944;2023-06-19T13:46:29;32.40;1.00
14709;DHT22;7445;50.774;4.944;2023-06-19T13:48:57;32.10;1.00
14709;DHT22;7445;50.774;4.944;2023-06-19T13:51:26;32.20;1.00
14709;DHT22;7445;50.774;4.944;2023-06-19T13:53:55;32.60;1.00
14709;DHT22;7445;50.774;4.944;2023-06-19T13:56:20;33.00;1.00
14709;DHT22;7445;50.774;4.944;2023-06-19T13:58:48;32.80;1.00
14709;DHT22;7445;50.774;4.944;2023-06-19T14:02:10;32.90;1.00
14709;DHT22;7445;50.774;4.944;2023-06-19T14:04:35;33.10;1.00
14709;DHT22;7445;50.774;4.944;2023-06-19T14:07:19;33.70;1.00
14709;DHT22;7445;50.774;4.944;2023-06-19T14:09:47;33.70;1.00
14709;DHT22;7445;50.774;4.944;2023-06-19T14:12:13;33.40;1.00
14709;DHT22;7445;50.774;4.944;2023-06-19T14:14:39;33.20;1.00
14709;DHT22;7445;50.774;4.944;2023-06-19T14:17:06;33.00;1.00
14709;DHT22;7445;50.774;4.944;2023-06-19T14:19:32;33.00;1.00
14709;DHT22;7445;50.774;4.944;2023-06-19T14:21:58;33.10;1.00
14709;DHT22;7445;50.774;4.944;2023-06-19T14:24:24;32.90;1.00
14709;DHT22;7445;50.774;4.944;2023-06-19T14:26:50;32.80;1.00
14709;DHT22;7445;50.774;4.944;2023-06-19T14:29:17;32.40;1.00
14709;DHT22;7445;50.774;4.944;2023-06-19T14:31:44;32.50;1.00
14709;DHT22;7445;50.774;4.944;2023-06-19T14:34:09;32.70;1.00
14709;DHT22;7445;50.774;4.944;2023-06-19T14:36:37;32.90;1.00
14709;DHT22;7445;50.774;4.944;2023-06-19T14:39:05;33.30;1.00
14709;DHT22;7445;50.774;4.944;2023-06-19T14:41:32;33.50;1.00
14709;DHT22;7445;50.774;4.944;2023-06-19T14:44:02;33.60;1.00
14709;DHT22;7445;50.774;4.944;2023-06-19T14:46:29;33.80;1.00
14709;DHT22;7445;50.774;4.944;2023-06-19T14:49:01;33.90;1.00
14709;DHT22;7445;50.774;4.944;2023-06-19T14:51:30;33.90;1.00
14709;DHT22;7445;50.774;4.944;2023-06-19T14:54:04;34.20;1.00
14709;DHT22;7445;50.774;4.944;2023-06-19T14:56:29;34.10;1.00
14709;DHT22;7445;50.774;4.944;2023-06-19T14:58:55;34.10;1.00
14709;DHT22;7445;50.774;4.944;2023-06-19T15:01:21;34.00;1.00
14709;DHT22;7445;50.774;4.944;2023-06-19T15:03:46;33.90;1.00
14709;DHT22;7445;50.774;4.944;2023-06-19T15:06:12;34.00;1.00
14709;DHT22;7445;50.774;4.944;2023-06-19T15:08:38;33.90;1.00
14709;DHT22;7445;50.774;4.944;2023-06-19T15:11:04;34.20;1.00
14709;DHT22;7445;50.774;4.944;2023-06-19T15:13:31;34.40;1.00
14709;DHT22;7445;50.774;4.944;2023-06-19T15:16:00;34.20;1.00
14709;DHT22;7445;50.774;4.944;2023-06-19T15:18:27;34.20;1.00
14709;DHT22;7445;50.774;4.944;2023-06-19T15:20:53;34.20;1.00
14709;DHT22;7445;50.774;4.944;2023-06-19T15:23:18;33.90;1.00
14709;DHT22;7445;50.774;4.944;2023-06-19T15:25:44;34.10;1.00
14709;DHT22;7445;50.774;4.944;2023-06-19T15:28:10;34.20;1.00
14709;DHT22;7445;50.774;4.944;2023-06-19T15:30:44;34.10;1.00
14709;DHT22;7445;50.774;4.944;2023-06-19T15:33:10;33.90;1.00
14709;DHT22;7445;50.774;4.944;2023-06-19T15:35:41;33.90;1.00
14709;DHT22;7445;50.774;4.944;2023-06-19T15:38:36;34.10;1.00
14709;DHT22;7445;50.774;4.944;2023-06-19T15:41:04;34.20;1.00
14709;DHT22;7445;50.774;4.944;2023-06-19T15:43:32;34.10;1.00
14709;DHT22;7445;50.774;4.944;2023-06-19T15:45:59;33.80;1.00
14709;DHT22;7445;50.774;4.944;2023-06-19T15:48:44;34.10;1.00
14709;DHT22;7445;50.774;4.944;2023-06-19T15:51:17;34.20;1.00
14709;DHT22;7445;50.774;4.944;2023-06-19T15:54:05;34.20;1.00
14709;DHT22;7445;50.774;4.944;2023-06-19T15:56:50;34.20;1.00
14709;DHT22;7445;50.774;4.944;2023-06-19T15:59:21;34.10;1.00
14709;DHT22;7445;50.774;4.944;2023-06-19T16:01:48;33.80;1.00
14709;DHT22;7445;50.774;4.944;2023-06-19T16:04:18;33.20;1.00
14709;DHT22;7445;50.774;4.944;2023-06-19T16:06:45;32.80;1.00
14709;DHT22;7445;50.774;4.944;2023-06-19T16:09:15;32.40;1.00
14709;DHT22;7445;50.774;4.944;2023-06-19T16:11:52;31.80;1.00
14709;DHT22;7445;50.774;4.944;2023-06-19T16:14:25;31.60;1.00
14709;DHT22;7445;50.774;4.944;2023-06-19T16:17:02;31.60;1.00
14709;DHT22;7445;50.774;4.944;2023-06-19T16:19:38;31.70;1.00
14709;DHT22;7445;50.774;4.944;2023-06-19T16:22:09;31.50;1.00
14709;DHT22;7445;50.774;4.944;2023-06-19T16:24:46;31.30;1.00
14709;DHT22;7445;50.774;4.944;2023-06-19T16:27:15;31.20;1.00
14709;DHT22;7445;50.774;4.944;2023-06-19T16:29:49;31.00;1.00
14709;DHT22;7445;50.774;4.944;2023-06-19T16:32:34;31.00;1.00
14709;DHT22;7445;50.774;4.944;2023-06-19T16:35:00;30.90;1.00
14709;DHT22;7445;50.774;4.944;2023-06-19T16:37:30;30.90;1.00
14709;DHT22;7445;50.774;4.944;2023-06-19T16:40:01;30.80;1.00
14709;DHT22;7445;50.774;4.944;2023-06-19T16:42:39;31.00;1.00
14709;DHT22;7445;50.774;4.944;2023-06-19T16:45:25;31.00;1.00
14709;DHT22;7445;50.774;4.944;2023-06-19T16:48:12;30.80;1.00
14709;DHT22;7445;50.774;4.944;2023-06-19T16:50:42;30.70;1.00
14709;DHT22;7445;50.774;4.944;2023-06-19T16:53:22;30.60;1.00
14709;DHT22;7445;50.774;4.944;2023-06-19T16:55:49;30.50;1.00
14709;DHT22;7445;50.774;4.944;2023-06-19T16:58:14;30.30;1.00
14709;DHT22;7445;50.774;4.944;2023-06-19T17:00:50;30.10;1.00
14709;DHT22;7445;50.774;4.944;2023-06-19T17:03:40;29.60;1.00
14709;DHT22;7445;50.774;4.944;2023-06-19T17:06:27;29.10;1.00
14709;DHT22;7445;50.774;4.944;2023-06-19T17:09:14;29.00;1.00
14709;DHT22;7445;50.774;4.944;2023-06-19T17:11:40;28.90;1.00
14709;DHT22;7445;50.774;4.944;2023-06-19T17:14:09;29.00;1.00
14709;DHT22;7445;50.774;4.944;2023-06-19T17:16:34;28.90;1.00
14709;DHT22;7445;50.774;4.944;2023-06-19T17:19:02;29.10;1.00
14709;DHT22;7445;50.774;4.944;2023-06-19T17:21:31;29.30;1.00
14709;DHT22;7445;50.774;4.944;2023-06-19T17:23:58;29.20;1.00
14709;DHT22;7445;50.774;4.944;2023-06-19T17:26:24;29.10;1.00
14709;DHT22;7445;50.774;4.944;2023-06-19T17:28:50;29.10;1.00
14709;DHT22;7445;50.774;4.944;2023-06-19T17:31:18;29.00;1.00
14709;DHT22;7445;50.774;4.944;2023-06-19T17:33:46;29.10;1.00
14709;DHT22;7445;50.774;4.944;2023-06-19T17:36:12;29.10;1.00
14709;DHT22;7445;50.774;4.944;2023-06-19T17:38:38;29.10;1.00
14709;DHT22;7445;50.774;4.944;2023-06-19T17:41:09;29.10;1.00
14709;DHT22;7445;50.774;4.944;2023-06-19T17:43:39;29.10;1.00
14709;DHT22;7445;50.774;4.944;2023-06-19T17:46:05;29.10;1.00
14709;DHT22;7445;50.774;4.944;2023-06-19T17:48:40;28.80;1.00
14709;DHT22;7445;50.774;4.944;2023-06-19T17:51:07;28.60;1.00
14709;DHT22;7445;50.774;4.944;2023-06-19T17:53:41;28.40;1.00
14709;DHT22;7445;50.774;4.944;2023-06-19T17:56:07;28.30;1.00
14709;DHT22;7445;50.774;4.944;2023-06-19T17:58:33;28.20;1.00
14709;DHT22;7445;50.774;4.944;2023-06-19T18:01:00;28.20;1.00
14709;DHT22;7445;50.774;4.944;2023-06-19T18:03:34;28.10;1.00
14709;DHT22;7445;50.774;4.944;2023-06-19T18:06:01;28.00;1.00
14709;DHT22;7445;50.774;4.944;2023-06-19T18:08:29;28.10;1.00
14709;DHT22;7445;50.774;4.944;2023-06-19T18:10:58;28.00;1.00
14709;DHT22;7445;50.774;4.944;2023-06-19T18:13:24;27.90;1.00
14709;DHT22;7445;50.774;4.944;2023-06-19T18:15:54;27.60;1.00
14709;DHT22;7445;50.774;4.944;2023-06-19T18:18:20;27.20;1.00
14709;DHT22;7445;50.774;4.944;2023-06-19T18:20:46;27.20;1.00
14709;DHT22;7445;50.774;4.944;2023-06-19T18:23:13;27.20;1.00
14709;DHT22;7445;50.774;4.944;2023-06-19T18:25:45;27.20;1.00
14709;DHT22;7445;50.774;4.944;2023-06-19T18:28:14;27.30;1.00
14709;DHT22;7445;50.774;4.944;2023-06-19T18:30:50;27.30;1.00
14709;DHT22;7445;50.774;4.944;2023-06-19T18:33:19;27.30;1.00
14709;DHT22;7445;50.774;4.944;2023-06-19T18:35:45;27.20;1.00
14709;DHT22;7445;50.774;4.944;2023-06-19T18:38:24;27.20;1.00
14709;DHT22;7445;50.774;4.944;2023-06-19T18:40:53;27.00;1.00
14709;DHT22;7445;50.774;4.944;2023-06-19T18:43:24;26.80;1.00
14709;DHT22;7445;50.774;4.944;2023-06-19T18:45:50;26.60;1.00
14709;DHT22;7445;50.774;4.944;2023-06-19T18:48:18;26.50;1.00
14709;DHT22;7445;50.774;4.944;2023-06-19T18:50:55;26.50;1.00
14709;DHT22;7445;50.774;4.944;2023-06-19T18:53:57;26.40;1.00
14709;DHT22;7445;50.774;4.944;2023-06-19T18:56:38;26.30;1.00
14709;DHT22;7445;50.774;4.944;2023-06-19T18:59:14;26.20;1.00
14709;DHT22;7445;50.774;4.944;2023-06-19T19:01:47;26.30;1.00
14709;DHT22;7445;50.774;4.944;2023-06-19T19:04:36;26.30;1.00
14709;DHT22;7445;50.774;4.944;2023-06-19T19:07:28;26.20;1.00
14709;DHT22;7445;50.774;4.944;2023-06-19T19:09:58;26.20;1.00
14709;DHT22;7445;50.774;4.944;2023-06-19T19:12:33;26.40;1.00
14709;DHT22;7445;50.774;4.944;2023-06-19T19:15:07;26.40;1.00
14709;DHT22;7445;50.774;4.944;2023-06-19T19:17:45;26.40;1.00
14709;DHT22;7445;50.774;4.944;2023-06-19T19:20:31;26.40;1.00
14709;DHT22;7445;50.774;4.944;2023-06-19T19:23:04;26.40;1.00
14709;DHT22;7445;50.774;4.944;2023-06-19T19:25:40;26.40;1.00
14709;DHT22;7445;50.774;4.944;2023-06-19T19:28:29;26.30;1.00
14709;DHT22;7445;50.774;4.944;2023-06-19T19:31:11;26.10;1.00
14709;DHT22;7445;50.774;4.944;2023-06-19T19:33:42;26.00;1.00
14709;DHT22;7445;50.774;4.944;2023-06-19T19:36:17;25.90;1.00
14709;DHT22;7445;50.774;4.944;2023-06-19T19:38:49;25.80;1.00
14709;DHT22;7445;50.774;4.944;2023-06-19T19:41:24;25.70;1.00
14709;DHT22;7445;50.774;4.944;2023-06-19T19:43:53;25.70;1.00
14709;DHT22;7445;50.774;4.944;2023-06-19T19:46:28;25.80;1.00
14709;DHT22;7445;50.774;4.944;2023-06-19T19:48:57;25.70;1.00
14709;DHT22;7445;50.774;4.944;2023-06-19T19:51:26;25.70;1.00
14709;DHT22;7445;50.774;4.944;2023-06-19T19:54:02;25.60;1.00
14709;DHT22;7445;50.774;4.944;2023-06-19T19:56:37;25.50;1.00
14709;DHT22;7445;50.774;4.944;2023-06-19T19:59:21;25.50;1.00
14709;DHT22;7445;50.774;4.944;2023-06-19T20:01:52;25.50;1.00
14709;DHT22;7445;50.774;4.944;2023-06-19T20:04:19;25.50;1.00
14709;DHT22;7445;50.774;4.944;2023-06-19T20:06:48;25.50;1.00
14709;DHT22;7445;50.774;4.944;2023-06-19T20:09:17;25.50;1.00
14709;DHT22;7445;50.774;4.944;2023-06-19T20:11:44;25.50;1.00
14709;DHT22;7445;50.774;4.944;2023-06-19T20:14:24;25.50;1.00
14709;DHT22;7445;50.774;4.944;2023-06-19T20:16:53;25.50;1.00
14709;DHT22;7445;50.774;4.944;2023-06-19T20:19:31;25.60;1.00
14709;DHT22;7445;50.774;4.944;2023-06-19T20:22:03;25.60;1.00
14709;DHT22;7445;50.774;4.944;2023-06-19T20:24:37;25.50;2.70
14709;DHT22;7445;50.774;4.944;2023-06-19T20:27:06;25.50;5.20
14709;DHT22;7445;50.774;4.944;2023-06-19T20:29:42;25.40;7.90
14709;DHT22;7445;50.774;4.944;2023-06-19T20:32:28;25.40;12.30
14709;DHT22;7445;50.774;4.944;2023-06-19T20:34:59;25.30;13.60
14709;DHT22;7445;50.774;4.944;2023-06-19T20:37:46;25.30;16.20
14709;DHT22;7445;50.774;4.944;2023-06-19T20:40:12;25.30;19.30
14709;DHT22;7445;50.774;4.944;2023-06-19T20:42:38;25.20;19.80
14709;DHT22;7445;50.774;4.944;2023-06-19T20:45:18;25.10;21.70
14709;DHT22;7445;50.774;4.944;2023-06-19T20:47:47;25.00;22.30
14709;DHT22;7445;50.774;4.944;2023-06-19T20:50:14;24.90;24.50
14709;DHT22;7445;50.774;4.944;2023-06-19T20:52:47;24.90;24.70
14709;DHT22;7445;50.774;4.944;2023-06-19T20:55:35;24.90;24.60
14709;DHT22;7445;50.774;4.944;2023-06-19T20:58:12;24.90;32.20
14709;DHT22;7445;50.774;4.944;2023-06-19T21:00:39;24.90;36.10
14709;DHT22;7445;50.774;4.944;2023-06-19T21:03:06;24.90;39.00
14709;DHT22;7445;50.774;4.944;2023-06-19T21:05:32;24.80;41.40
14709;DHT22;7445;50.774;4.944;2023-06-19T21:07:58;24.70;39.10
14709;DHT22;7445;50.774;4.944;2023-06-19T21:10:32;24.70;36.80
14709;DHT22;7445;50.774;4.944;2023-06-19T21:12:57;24.70;41.60
14709;DHT22;7445;50.774;4.944;2023-06-19T21:15:23;24.60;43.30
14709;DHT22;7445;50.774;4.944;2023-06-19T21:17:49;24.60;42.00
14709;DHT22;7445;50.774;4.944;2023-06-19T21:20:14;24.60;47.30
14709;DHT22;7445;50.774;4.944;2023-06-19T21:22:40;24.50;52.50
14709;DHT22;7445;50.774;4.944;2023-06-19T21:25:06;24.40;60.40
14709;DHT22;7445;50.774;4.944;2023-06-19T21:27:33;24.40;66.20
14709;DHT22;7445;50.774;4.944;2023-06-19T21:29:58;24.40;63.60
14709;DHT22;7445;50.774;4.944;2023-06-19T21:32:24;24.30;64.10
14709;DHT22;7445;50.774;4.944;2023-06-19T21:34:50;24.20;67.70
14709;DHT22;7445;50.774;4.944;2023-06-19T21:37:15;24.30;68.80
14709;DHT22;7445;50.774;4.944;2023-06-19T21:39:41;24.20;69.30
14709;DHT22;7445;50.774;4.944;2023-06-19T21:42:07;24.20;64.10
14709;DHT22;7445;50.774;4.944;2023-06-19T21:44:33;24.10;60.60
14709;DHT22;7445;50.774;4.944;2023-06-19T21:46:58;24.00;65.20
14709;DHT22;7445;50.774;4.944;2023-06-19T21:49:24;24.00;69.40
14709;DHT22;7445;50.774;4.944;2023-06-19T21:51:49;23.90;68.90
14709;DHT22;7445;50.774;4.944;2023-06-19T21:54:16;23.90;71.10
14709;DHT22;7445;50.774;4.944;2023-06-19T21:56:42;23.90;77.00
14709;DHT22;7445;50.774;4.944;2023-06-19T21:59:08;23.90;74.50
14709;DHT22;7445;50.774;4.944;2023-06-19T22:01:33;23.90;77.40
14709;DHT22;7445;50.774;4.944;2023-06-19T22:03:59;23.90;81.40
14709;DHT22;7445;50.774;4.944;2023-06-19T22:06:24;23.90;80.40
14709;DHT22;7445;50.774;4.944;2023-06-19T22:08:50;23.80;76.00
14709;DHT22;7445;50.774;4.944;2023-06-19T22:11:16;23.80;80.00
14709;DHT22;7445;50.774;4.944;2023-06-19T22:13:41;23.70;79.90
14709;DHT22;7445;50.774;4.944;2023-06-19T22:16:08;23.70;73.40
14709;DHT22;7445;50.774;4.944;2023-06-19T22:18:34;23.60;75.50
14709;DHT22;7445;50.774;4.944;2023-06-19T22:21:02;23.70;85.40
14709;DHT22;7445;50.774;4.944;2023-06-19T22:23:29;23.70;85.10
